Strona główna
METAR-TAF:

METAR-TAF

Lotnisko :

Alpnach, Szwajcaria

Szerokość geograficzna: 46-56-19N, Długość geograficzna: 8-17-03E, wysokość: 440 m

Aktualna obserwacja pogody

Raport powstał 22 minut temu, godzina 10:50 UTC
Wiatr 4 kt od północny wschód
Temperatura 8°C
Wilgotność 66%
Ciśnienie 1030 hPa
Widzialność 10 km lub więcej
Rozproszone chmury na wysokości 5000 ft

METAR: LSMA 181050Z 04004KT 9999 SCT050 08/02 Q1030 RMK BLU+

czas: 12:12 (11:12 UTC)


TAF: brakujący

Obserwacja i prognoza pogody dla ponad 4000 lotnisk (raport METAR i TAF).

Dostępne stacje oznaczono żółtymi i czerwonymi punktami na mapie.

Najedź kursorem aby zobaczyć nazwę stacji.

Kliknij aby zobaczyć obserwacje i prognozy pogody.

Aby zmienić mapę: kliknij na zielony przycisk z czarnym krzyżykiem, aby powiększyć; na zielony przycisk z myślnikiem, aby pomniejszyć; na zielone strzałki, aby przejść do map sąsiednich.


METAR-TAF: